sensor_id;sensor_type;location;lat;lon;timestamp;temperature;humidity
40630;DHT22;26329;40.388;-3.710;2022-11-09T00:03:40;15.40;82.50
40630;DHT22;26329;40.388;-3.710;2022-11-09T00:13:43;15.30;83.50
40630;DHT22;26329;40.388;-3.710;2022-11-09T00:23:46;15.30;83.20
40630;DHT22;26329;40.388;-3.710;2022-11-09T00:33:53;15.30;83.20
40630;DHT22;26329;40.388;-3.710;2022-11-09T00:43:55;15.40;83.20
40630;DHT22;26329;40.388;-3.710;2022-11-09T00:53:56;15.30;83.80
40630;DHT22;26329;40.388;-3.710;2022-11-09T01:03:58;15.30;83.40
40630;DHT22;26329;40.388;-3.710;2022-11-09T01:13:59;15.30;83.40
40630;DHT22;26329;40.388;-3.710;2022-11-09T01:24:02;15.40;83.00
40630;DHT22;26329;40.388;-3.710;2022-11-09T01:34:04;15.40;82.70
40630;DHT22;26329;40.388;-3.710;2022-11-09T01:44:08;15.40;82.80
40630;DHT22;26329;40.388;-3.710;2022-11-09T01:54:19;15.30;83.00
40630;DHT22;26329;40.388;-3.710;2022-11-09T02:04:32;15.40;82.30
40630;DHT22;26329;40.388;-3.710;2022-11-09T02:14:34;15.30;82.20
40630;DHT22;26329;40.388;-3.710;2022-11-09T02:24:37;15.20;82.50
40630;DHT22;26329;40.388;-3.710;2022-11-09T02:34:40;15.20;82.30
40630;DHT22;26329;40.388;-3.710;2022-11-09T02:44:47;15.10;82.50
40630;DHT22;26329;40.388;-3.710;2022-11-09T02:54:49;15.10;82.70
40630;DHT22;26329;40.388;-3.710;2022-11-09T03:04:52;15.00;82.60
40630;DHT22;26329;40.388;-3.710;2022-11-09T03:15:03;15.00;82.40
40630;DHT22;26329;40.388;-3.710;2022-11-09T03:25:05;14.80;83.40
40630;DHT22;26329;40.388;-3.710;2022-11-09T03:35:07;14.80;84.00
40630;DHT22;26329;40.388;-3.710;2022-11-09T03:45:11;14.80;83.70
40630;DHT22;26329;40.388;-3.710;2022-11-09T03:55:13;15.00;83.00
40630;DHT22;26329;40.388;-3.710;2022-11-09T04:05:16;14.90;83.00
40630;DHT22;26329;40.388;-3.710;2022-11-09T04:15:19;14.90;82.80
40630;DHT22;26329;40.388;-3.710;2022-11-09T04:25:21;14.90;82.40
40630;DHT22;26329;40.388;-3.710;2022-11-09T04:35:24;14.80;82.70
40630;DHT22;26329;40.388;-3.710;2022-11-09T04:45:26;14.80;83.10
40630;DHT22;26329;40.388;-3.710;2022-11-09T04:55:27;14.80;82.90
40630;DHT22;26329;40.388;-3.710;2022-11-09T05:05:29;14.80;82.90
40630;DHT22;26329;40.388;-3.710;2022-11-09T05:15:31;14.80;83.20
40630;DHT22;26329;40.388;-3.710;2022-11-09T05:25:33;14.90;82.70
40630;DHT22;26329;40.388;-3.710;2022-11-09T05:35:34;14.90;82.50
40630;DHT22;26329;40.388;-3.710;2022-11-09T05:45:35;14.90;82.80
40630;DHT22;26329;40.388;-3.710;2022-11-09T05:55:38;14.80;83.00
40630;DHT22;26329;40.388;-3.710;2022-11-09T06:05:40;14.70;83.30
40630;DHT22;26329;40.388;-3.710;2022-11-09T06:15:55;14.70;83.20
40630;DHT22;26329;40.388;-3.710;2022-11-09T06:26:01;14.70;82.90
40630;DHT22;26329;40.388;-3.710;2022-11-09T06:36:04;14.60;82.90
40630;DHT22;26329;40.388;-3.710;2022-11-09T06:46:05;14.60;83.00
40630;DHT22;26329;40.388;-3.710;2022-11-09T06:56:08;14.70;82.50
40630;DHT22;26329;40.388;-3.710;2022-11-09T07:06:11;14.40;83.50
40630;DHT22;26329;40.388;-3.710;2022-11-09T07:16:14;14.30;83.70
40630;DHT22;26329;40.388;-3.710;2022-11-09T07:26:17;14.30;84.10
40630;DHT22;26329;40.388;-3.710;2022-11-09T07:36:19;14.30;84.10
40630;DHT22;26329;40.388;-3.710;2022-11-09T07:46:21;14.30;84.30
40630;DHT22;26329;40.388;-3.710;2022-11-09T07:56:25;14.30;84.70
40630;DHT22;26329;40.388;-3.710;2022-11-09T08:06:27;14.30;84.60
40630;DHT22;26329;40.388;-3.710;2022-11-09T08:16:29;14.40;84.90
40630;DHT22;26329;40.388;-3.710;2022-11-09T08:26:34;14.50;84.40
40630;DHT22;26329;40.388;-3.710;2022-11-09T08:36:36;14.50;83.90
40630;DHT22;26329;40.388;-3.710;2022-11-09T08:46:37;14.60;84.00
40630;DHT22;26329;40.388;-3.710;2022-11-09T08:56:39;14.80;83.80
40630;DHT22;26329;40.388;-3.710;2022-11-09T09:06:41;14.90;83.60
40630;DHT22;26329;40.388;-3.710;2022-11-09T09:16:43;15.00;83.70
40630;DHT22;26329;40.388;-3.710;2022-11-09T09:26:45;14.90;81.80
40630;DHT22;26329;40.388;-3.710;2022-11-09T09:36:47;14.60;81.60
40630;DHT22;26329;40.388;-3.710;2022-11-09T09:47:21;14.80;81.80
40630;DHT22;26329;40.388;-3.710;2022-11-09T09:57:25;14.80;82.00
40630;DHT22;26329;40.388;-3.710;2022-11-09T10:07:43;14.60;82.60
40630;DHT22;26329;40.388;-3.710;2022-11-09T10:17:51;14.60;83.10
40630;DHT22;26329;40.388;-3.710;2022-11-09T10:27:57;14.60;83.20
40630;DHT22;26329;40.388;-3.710;2022-11-09T10:37:59;14.60;83.40
40630;DHT22;26329;40.388;-3.710;2022-11-09T10:48:07;16.00;78.70
40630;DHT22;26329;40.388;-3.710;2022-11-09T10:58:25;15.80;77.30
40630;DHT22;26329;40.388;-3.710;2022-11-09T11:08:32;15.20;80.40
40630;DHT22;26329;40.388;-3.710;2022-11-09T11:18:35;15.10;80.90
40630;DHT22;26329;40.388;-3.710;2022-11-09T11:39:02;15.20;81.20
40630;DHT22;26329;40.388;-3.710;2022-11-09T12:20:46;16.00;76.40
40630;DHT22;26329;40.388;-3.710;2022-11-09T12:41:32;16.60;73.70
40630;DHT22;26329;40.388;-3.710;2022-11-09T12:51:34;16.70;71.40
40630;DHT22;26329;40.388;-3.710;2022-11-09T13:11:41;16.90;69.40
40630;DHT22;26329;40.388;-3.710;2022-11-09T13:21:44;16.40;69.20
40630;DHT22;26329;40.388;-3.710;2022-11-09T13:42:33;16.40;70.40
40630;DHT22;26329;40.388;-3.710;2022-11-09T14:03:01;16.60;70.70
40630;DHT22;26329;40.388;-3.710;2022-11-09T14:23:22;16.50;70.80
40630;DHT22;26329;40.388;-3.710;2022-11-09T14:33:31;16.50;70.50
40630;DHT22;26329;40.388;-3.710;2022-11-09T14:43:44;16.80;69.90
40630;DHT22;26329;40.388;-3.710;2022-11-09T14:53:48;16.70;69.80
40630;DHT22;26329;40.388;-3.710;2022-11-09T15:04:12;16.70;70.20
40630;DHT22;26329;40.388;-3.710;2022-11-09T15:24:21;16.70;69.80
40630;DHT22;26329;40.388;-3.710;2022-11-09T15:34:31;16.50;69.80
40630;DHT22;26329;40.388;-3.710;2022-11-09T15:44:36;16.30;70.70
40630;DHT22;26329;40.388;-3.710;2022-11-09T15:54:38;16.20;71.30
40630;DHT22;26329;40.388;-3.710;2022-11-09T16:04:40;16.00;72.70
40630;DHT22;26329;40.388;-3.710;2022-11-09T16:14:42;15.90;72.70
40630;DHT22;26329;40.388;-3.710;2022-11-09T16:24:48;15.70;72.80
40630;DHT22;26329;40.388;-3.710;2022-11-09T16:34:49;15.60;74.10
40630;DHT22;26329;40.388;-3.710;2022-11-09T16:44:51;15.40;75.80
40630;DHT22;26329;40.388;-3.710;2022-11-09T16:54:54;15.30;77.00
40630;DHT22;26329;40.388;-3.710;2022-11-09T17:04:55;15.30;77.10
40630;DHT22;26329;40.388;-3.710;2022-11-09T17:14:57;15.10;77.70
40630;DHT22;26329;40.388;-3.710;2022-11-09T17:25:00;15.10;77.20
40630;DHT22;26329;40.388;-3.710;2022-11-09T17:35:01;15.00;77.30
40630;DHT22;26329;40.388;-3.710;2022-11-09T17:45:03;14.90;77.10
40630;DHT22;26329;40.388;-3.710;2022-11-09T17:55:06;14.80;77.20
40630;DHT22;26329;40.388;-3.710;2022-11-09T18:05:08;14.70;77.30
40630;DHT22;26329;40.388;-3.710;2022-11-09T18:15:12;14.60;78.40
40630;DHT22;26329;40.388;-3.710;2022-11-09T18:25:15;14.60;78.50
40630;DHT22;26329;40.388;-3.710;2022-11-09T18:35:17;14.40;78.90
40630;DHT22;26329;40.388;-3.710;2022-11-09T18:45:19;14.40;79.20
40630;DHT22;26329;40.388;-3.710;2022-11-09T18:55:22;14.30;79.30
40630;DHT22;26329;40.388;-3.710;2022-11-09T19:05:23;14.20;79.40
40630;DHT22;26329;40.388;-3.710;2022-11-09T19:15:25;14.20;79.40
40630;DHT22;26329;40.388;-3.710;2022-11-09T19:25:28;14.10;79.90
40630;DHT22;26329;40.388;-3.710;2022-11-09T19:35:30;14.00;79.60
40630;DHT22;26329;40.388;-3.710;2022-11-09T19:45:32;13.90;79.80
40630;DHT22;26329;40.388;-3.710;2022-11-09T19:55:33;13.90;79.70
40630;DHT22;26329;40.388;-3.710;2022-11-09T20:05:35;13.80;80.00
40630;DHT22;26329;40.388;-3.710;2022-11-09T20:15:37;13.80;80.30
40630;DHT22;26329;40.388;-3.710;2022-11-09T20:25:38;13.60;80.60
40630;DHT22;26329;40.388;-3.710;2022-11-09T20:35:40;13.40;80.90
40630;DHT22;26329;40.388;-3.710;2022-11-09T20:45:44;13.30;81.30
40630;DHT22;26329;40.388;-3.710;2022-11-09T20:55:46;13.10;81.50
40630;DHT22;26329;40.388;-3.710;2022-11-09T21:05:53;13.00;81.70
40630;DHT22;26329;40.388;-3.710;2022-11-09T21:16:06;12.90;81.70
40630;DHT22;26329;40.388;-3.710;2022-11-09T21:26:12;12.80;81.60
40630;DHT22;26329;40.388;-3.710;2022-11-09T21:36:33;12.70;81.70
40630;DHT22;26329;40.388;-3.710;2022-11-09T21:46:38;12.50;81.40
40630;DHT22;26329;40.388;-3.710;2022-11-09T21:56:40;12.30;81.30
40630;DHT22;26329;40.388;-3.710;2022-11-09T22:06:42;12.20;81.40
40630;DHT22;26329;40.388;-3.710;2022-11-09T22:16:44;12.10;81.20
40630;DHT22;26329;40.388;-3.710;2022-11-09T22:26:46;12.10;81.40
40630;DHT22;26329;40.388;-3.710;2022-11-09T22:36:48;12.00;81.20
40630;DHT22;26329;40.388;-3.710;2022-11-09T22:46:51;12.00;81.50
40630;DHT22;26329;40.388;-3.710;2022-11-09T22:56:52;11.90;81.50
40630;DHT22;26329;40.388;-3.710;2022-11-09T23:06:54;11.90;81.50
40630;DHT22;26329;40.388;-3.710;2022-11-09T23:16:56;11.80;81.30
40630;DHT22;26329;40.388;-3.710;2022-11-09T23:26:59;11.60;81.10
40630;DHT22;26329;40.388;-3.710;2022-11-09T23:37:01;11.40;81.00
40630;DHT22;26329;40.388;-3.710;2022-11-09T23:47:02;11.10;80.60
40630;DHT22;26329;40.388;-3.710;2022-11-09T23:57:04;11.10;80.80
